Terminal Aerodrome Forecast
Issued by NWS Quad Cities IA IL

Home | Current Version | Previous Version | Text Only | Print | Product List | Glossary On
Versions: 1 2 3 4 5 6 7 8 9 10 11 12 13 14 15 16 17 18 19 20 21 22 23 24 25
000
FTUS43 KDVN 181722
TAFDBQ
TAF
KDBQ 181722Z 1818/1918 23012KT 5SM BR SCT007
     FM181900 23013G20KT P6SM SCT025
     FM182300 22011KT P6SM SCT250
     FM190700 25010KT 6SM BR SCT150=

USA.gov is the U.S. government's official web portal to all federal, state and local government web resources and services.